createdAt,value
2023-05-02T00:01:32.573Z,22.11
2023-05-02T00:03:59.530Z,22.17
2023-05-02T00:06:26.534Z,22.18
2023-05-02T00:08:53.362Z,22.12
2023-05-02T00:11:20.120Z,22.28
2023-05-02T00:13:46.874Z,22.39
2023-05-02T00:16:13.643Z,22.43
2023-05-02T00:18:40.417Z,22.61
2023-05-02T00:21:08.414Z,22.64
2023-05-02T00:23:35.209Z,22.61
2023-05-02T00:26:01.968Z,22.75
2023-05-02T00:28:28.904Z,22.74
2023-05-02T00:30:55.736Z,20.25
2023-05-02T00:33:22.749Z,18.75
2023-05-02T00:35:49.686Z,19.15
2023-05-02T00:38:16.687Z,20.44
2023-05-02T00:40:44.699Z,21.01
2023-05-02T00:43:11.594Z,21.48
2023-05-02T00:45:40.432Z,21.56
2023-05-02T00:48:07.923Z,21.77
2023-05-02T00:50:34.729Z,21.82
2023-05-02T00:53:03.658Z,22.00
2023-05-02T00:55:30.458Z,22.05
2023-05-02T00:57:57.209Z,22.11
2023-05-02T01:00:24.325Z,22.26
2023-05-02T01:02:51.588Z,22.25
2023-05-02T01:05:19.961Z,22.31
2023-05-02T01:07:46.892Z,22.46
2023-05-02T01:10:13.657Z,22.53
2023-05-02T01:12:40.456Z,22.60
2023-05-02T01:15:07.346Z,22.57
2023-05-02T01:17:34.434Z,22.67
2023-05-02T01:20:01.488Z,22.64
2023-05-02T01:22:29.230Z,22.70
2023-05-02T01:24:55.976Z,21.07
2023-05-02T01:27:22.752Z,19.35
2023-05-02T01:29:49.494Z,18.81
2023-05-02T01:32:16.369Z,19.91
2023-05-02T01:34:43.268Z,20.73
2023-05-02T01:37:10.283Z,21.18
2023-05-02T01:39:37.043Z,21.50
2023-05-02T01:42:03.808Z,21.77
2023-05-02T01:44:30.558Z,21.84
2023-05-02T01:46:57.512Z,21.96
2023-05-02T01:49:24.339Z,22.07
2023-05-02T01:51:51.091Z,22.04
2023-05-02T01:54:18.051Z,22.21
2023-05-02T01:56:45.478Z,22.26
2023-05-02T01:59:12.235Z,22.44
2023-05-02T02:01:39.112Z,22.49
2023-05-02T02:04:06.664Z,22.50
2023-05-02T02:06:33.805Z,22.52
2023-05-02T02:09:00.726Z,22.55
2023-05-02T02:11:27.539Z,22.63
2023-05-02T02:13:54.293Z,22.73
2023-05-02T02:16:21.597Z,22.57
2023-05-02T02:18:48.394Z,20.26
2023-05-02T02:21:15.119Z,19.07
2023-05-02T02:23:43.328Z,19.54
2023-05-02T02:26:10.238Z,20.26
2023-05-02T02:28:37.061Z,20.95
2023-05-02T02:31:03.973Z,21.40
2023-05-02T02:33:31.005Z,21.56
2023-05-02T02:35:57.783Z,21.74
2023-05-02T02:38:24.551Z,21.80
2023-05-02T02:40:51.341Z,21.99
2023-05-02T02:43:18.135Z,21.99
2023-05-02T02:45:44.984Z,22.06
2023-05-02T02:48:11.912Z,22.18
2023-05-02T02:50:38.667Z,22.26
2023-05-02T02:53:05.508Z,22.31
2023-05-02T02:55:32.335Z,22.44
2023-05-02T02:57:59.084Z,22.59
2023-05-02T03:00:25.958Z,22.51
2023-05-02T03:02:53.247Z,22.55
2023-05-02T03:05:20.340Z,22.61
2023-05-02T03:07:47.094Z,22.64
2023-05-02T03:10:13.817Z,22.77
2023-05-02T03:12:41.203Z,20.44
2023-05-02T03:15:07.961Z,18.87
2023-05-02T03:17:34.724Z,18.84
2023-05-02T03:20:01.644Z,20.17
2023-05-02T03:22:28.636Z,20.93
2023-05-02T03:24:55.386Z,21.38
2023-05-02T03:27:22.122Z,21.60
2023-05-02T03:29:48.932Z,21.73
2023-05-02T03:32:16.505Z,21.81
2023-05-02T03:34:43.333Z,21.95
2023-05-02T03:37:10.340Z,21.98
2023-05-02T03:39:37.103Z,22.08
2023-05-02T03:42:03.837Z,22.10
2023-05-02T03:44:30.661Z,22.15
2023-05-02T03:46:57.460Z,22.24
2023-05-02T03:49:24.249Z,22.49
2023-05-02T03:51:51.147Z,22.44
2023-05-02T03:54:17.940Z,22.49
2023-05-02T03:56:44.915Z,22.57
2023-05-02T03:59:12.035Z,22.60
2023-05-02T04:01:38.816Z,22.59
2023-05-02T04:04:05.750Z,22.77
2023-05-02T04:06:32.686Z,22.53
2023-05-02T04:08:59.721Z,19.76
2023-05-02T04:11:26.693Z,17.75
2023-05-02T04:13:53.505Z,18.71
2023-05-02T04:16:20.362Z,20.40
2023-05-02T04:18:47.222Z,21.07
2023-05-02T04:21:13.991Z,21.28
2023-05-02T04:23:41.036Z,21.55
2023-05-02T04:26:07.801Z,21.69
2023-05-02T04:28:34.560Z,21.75
2023-05-02T04:31:01.372Z,21.80
2023-05-02T04:33:28.134Z,21.94
2023-05-02T04:35:54.935Z,22.01
2023-05-02T04:38:21.722Z,22.13
2023-05-02T04:40:48.499Z,22.17
2023-05-02T04:43:15.413Z,22.23
2023-05-02T04:45:42.186Z,22.36
2023-05-02T04:48:09.001Z,22.30
2023-05-02T04:50:35.884Z,22.37
2023-05-02T04:53:02.674Z,22.49
2023-05-02T04:55:30.084Z,22.56
2023-05-02T04:57:56.856Z,22.61
2023-05-02T05:00:23.625Z,22.64
2023-05-02T05:06:02.413Z,19.80
2023-05-02T05:08:29.316Z,18.52
2023-05-02T05:10:56.062Z,19.54
2023-05-02T05:13:22.855Z,20.45
2023-05-02T05:15:49.709Z,21.12
2023-05-02T05:18:16.680Z,21.45
2023-05-02T05:20:43.682Z,21.55
2023-05-02T05:23:10.600Z,21.78
2023-05-02T05:25:37.441Z,22.05
2023-05-02T05:28:04.250Z,21.87
2023-05-02T05:30:31.071Z,22.07
2023-05-02T05:33:00.913Z,22.10
2023-05-02T05:35:27.736Z,22.12
2023-05-02T05:37:54.497Z,22.38
2023-05-02T05:40:21.455Z,22.34
2023-05-02T05:42:48.249Z,22.45
2023-05-02T05:45:16.931Z,22.47
2023-05-02T05:47:43.703Z,22.60
2023-05-02T05:50:11.029Z,22.70
2023-05-02T05:52:37.800Z,22.62
2023-05-02T05:55:04.592Z,22.62
2023-05-02T05:57:31.360Z,20.15
2023-05-02T05:59:58.256Z,18.99
2023-05-02T06:02:25.267Z,19.43
2023-05-02T06:04:52.137Z,20.45
2023-05-02T06:07:18.947Z,21.01
2023-05-02T06:09:45.932Z,21.41
2023-05-02T06:12:12.698Z,21.61
2023-05-02T06:14:39.526Z,21.68
2023-05-02T06:17:06.528Z,21.81
2023-05-02T06:19:33.319Z,21.92
2023-05-02T06:22:00.105Z,21.98
2023-05-02T06:24:26.941Z,22.06
2023-05-02T06:26:53.770Z,22.22
2023-05-02T06:29:20.614Z,22.25
2023-05-02T06:31:47.392Z,22.31
2023-05-02T06:34:14.275Z,22.37
2023-05-02T06:36:41.036Z,22.42
2023-05-02T06:39:07.787Z,22.46
2023-05-02T06:41:34.646Z,22.63
2023-05-02T06:44:01.407Z,22.60
2023-05-02T06:46:28.189Z,22.71
2023-05-02T06:48:54.968Z,21.33
2023-05-02T06:51:22.494Z,19.38
2023-05-02T06:53:49.356Z,18.70
2023-05-02T06:56:16.304Z,19.86
2023-05-02T06:58:43.069Z,20.72
2023-05-02T07:01:10.110Z,21.12
2023-05-02T07:03:36.971Z,21.50
2023-05-02T07:06:03.792Z,21.58
2023-05-02T07:08:30.676Z,21.83
2023-05-02T07:10:57.486Z,21.98
2023-05-02T07:13:24.260Z,21.98
2023-05-02T07:15:51.003Z,22.02
2023-05-02T07:18:17.907Z,22.20
2023-05-02T07:20:44.779Z,22.21
2023-05-02T07:23:11.584Z,22.31
2023-05-02T07:25:39.894Z,22.43
2023-05-02T07:28:06.728Z,22.54
2023-05-02T07:30:33.480Z,22.57
2023-05-02T07:33:00.462Z,22.70
2023-05-02T07:35:27.538Z,22.65
2023-05-02T07:37:54.289Z,20.89
2023-05-02T07:40:21.099Z,19.12
2023-05-02T07:42:47.909Z,18.54
2023-05-02T07:45:14.723Z,20.11
2023-05-02T07:47:41.945Z,20.90
2023-05-02T07:50:09.157Z,21.35
2023-05-02T07:52:36.034Z,21.54
2023-05-02T07:55:02.959Z,21.74
2023-05-02T07:57:29.753Z,21.84
2023-05-02T07:59:57.274Z,21.95
2023-05-02T08:02:24.781Z,22.15
2023-05-02T08:04:51.718Z,22.08
2023-05-02T08:07:18.524Z,22.12
2023-05-02T08:09:45.321Z,22.24
2023-05-02T08:12:12.089Z,22.40
2023-05-02T08:14:38.987Z,22.40
2023-05-02T08:17:06.098Z,22.46
2023-05-02T08:19:32.914Z,22.49
2023-05-02T08:21:59.719Z,22.64
2023-05-02T08:24:26.663Z,22.54
2023-05-02T08:26:53.436Z,22.04
2023-05-02T08:29:20.305Z,19.93
2023-05-02T08:31:47.157Z,18.53
2023-05-02T08:34:13.940Z,19.63
2023-05-02T08:36:40.749Z,20.58
2023-05-02T08:39:11.238Z,21.28
2023-05-02T08:41:38.182Z,21.51
2023-05-02T08:44:05.099Z,21.64
2023-05-02T08:46:32.009Z,21.84
2023-05-02T08:48:59.067Z,21.95
2023-05-02T08:51:26.010Z,22.11
2023-05-02T08:53:52.766Z,22.14
2023-05-02T08:56:19.575Z,22.18
2023-05-02T08:58:46.345Z,22.31
2023-05-02T09:01:13.285Z,22.31
2023-05-02T09:03:40.099Z,22.43
2023-05-02T09:06:07.076Z,22.63
2023-05-02T09:08:34.395Z,22.54
2023-05-02T09:11:01.252Z,22.65
2023-05-02T09:13:28.107Z,22.19
2023-05-02T09:15:54.895Z,19.78
2023-05-02T09:18:23.256Z,18.91
2023-05-02T09:20:50.092Z,19.61
2023-05-02T09:23:16.880Z,20.47
2023-05-02T09:25:43.659Z,21.13
2023-05-02T09:28:10.648Z,21.42
2023-05-02T09:30:37.481Z,21.60
2023-05-02T09:33:04.497Z,21.81
2023-05-02T09:35:31.288Z,21.94
2023-05-02T09:37:58.052Z,21.96
2023-05-02T09:40:25.033Z,22.14
2023-05-02T09:42:51.826Z,22.37
2023-05-02T09:45:18.594Z,22.23
2023-05-02T09:47:45.460Z,22.55
2023-05-02T09:50:12.239Z,22.48
2023-05-02T09:52:39.024Z,22.59
2023-05-02T09:55:06.072Z,22.63
2023-05-02T09:57:32.893Z,22.63
2023-05-02T09:59:59.692Z,22.73
2023-05-02T10:02:26.555Z,21.09
2023-05-02T10:04:53.469Z,19.31
2023-05-02T10:07:20.331Z,19.08
2023-05-02T10:09:47.087Z,19.93
2023-05-02T10:12:13.866Z,20.74
2023-05-02T10:14:43.639Z,21.27
2023-05-02T10:17:10.903Z,21.47
2023-05-02T10:19:37.645Z,21.82
2023-05-02T10:22:04.422Z,21.80
2023-05-02T10:24:31.172Z,21.99
2023-05-02T10:26:57.940Z,22.04
2023-05-02T10:29:24.804Z,22.08
2023-05-02T10:31:51.835Z,22.24
2023-05-02T10:34:18.606Z,22.35
2023-05-02T10:36:45.580Z,22.38
2023-05-02T10:39:12.317Z,22.48
2023-05-02T10:41:39.052Z,22.56
2023-05-02T10:44:07.788Z,22.55
2023-05-02T10:46:34.734Z,22.47
2023-05-02T10:49:01.887Z,20.00
2023-05-02T10:51:29.709Z,18.95
2023-05-02T10:53:57.432Z,19.46
2023-05-02T10:56:28.516Z,20.43
2023-05-02T10:58:56.096Z,21.11
2023-05-02T11:01:22.980Z,21.47
2023-05-02T11:03:49.801Z,21.56
2023-05-02T11:06:17.407Z,21.76
2023-05-02T11:08:44.290Z,21.95
2023-05-02T11:11:11.129Z,22.06
2023-05-02T11:13:37.957Z,22.09
2023-05-02T11:16:04.760Z,22.18
2023-05-02T11:18:31.511Z,22.32
2023-05-02T11:20:58.255Z,22.36
2023-05-02T11:23:25.940Z,22.50
2023-05-02T11:25:53.039Z,22.43
2023-05-02T11:28:19.884Z,22.55
2023-05-02T11:30:48.515Z,22.53
2023-05-02T11:33:17.062Z,22.61
2023-05-02T11:35:44.112Z,20.52
2023-05-02T11:38:10.903Z,19.06
2023-05-02T11:40:37.733Z,19.14
2023-05-02T11:43:04.556Z,20.13
2023-05-02T11:45:32.210Z,20.99
2023-05-02T11:47:59.022Z,21.36
2023-05-02T11:50:27.532Z,21.54
2023-05-02T11:52:55.535Z,21.70
2023-05-02T11:55:22.353Z,21.86
2023-05-02T11:57:49.205Z,22.10
2023-05-02T12:00:15.946Z,22.19
2023-05-02T12:02:42.822Z,22.23
2023-05-02T12:05:09.921Z,22.25
2023-05-02T12:07:39.507Z,22.35
2023-05-02T12:10:06.414Z,22.41
2023-05-02T12:12:33.202Z,22.59
2023-05-02T12:15:00.107Z,22.58
2023-05-02T12:17:27.082Z,22.61
2023-05-02T12:19:53.855Z,22.67
2023-05-02T12:22:20.663Z,20.98
2023-05-02T12:24:49.111Z,19.24
2023-05-02T12:27:15.952Z,18.84
2023-05-02T12:29:42.791Z,19.97
2023-05-02T12:32:09.562Z,20.93
2023-05-02T12:34:36.554Z,21.33
2023-05-02T12:37:03.867Z,21.58
2023-05-02T12:39:30.811Z,21.60
2023-05-02T12:41:57.604Z,21.85
2023-05-02T12:44:24.478Z,22.05
2023-05-02T12:46:51.366Z,22.07
2023-05-02T12:49:18.184Z,22.09
2023-05-02T12:51:44.954Z,22.19
2023-05-02T12:54:11.710Z,22.25
2023-05-02T12:56:38.490Z,22.44
2023-05-02T12:59:05.761Z,22.57
2023-05-02T13:01:32.523Z,22.57
2023-05-02T13:03:59.365Z,22.51
2023-05-02T13:06:26.255Z,22.72
2023-05-02T13:08:53.042Z,21.69
2023-05-02T13:11:20.503Z,19.82
2023-05-02T13:13:47.260Z,19.45
2023-05-02T13:16:14.288Z,20.47
2023-05-02T13:18:41.417Z,20.99
2023-05-02T13:21:08.244Z,21.56
2023-05-02T13:23:35.043Z,21.78
2023-05-02T13:26:01.903Z,21.93
2023-05-02T13:28:33.039Z,21.97
2023-05-02T13:30:59.890Z,22.16
2023-05-02T13:33:26.693Z,22.37
2023-05-02T13:35:53.464Z,22.38
2023-05-02T13:38:20.262Z,22.43
2023-05-02T13:40:47.085Z,22.46
2023-05-02T13:43:14.459Z,22.59
2023-05-02T13:45:41.481Z,22.69
2023-05-02T13:48:08.296Z,22.69
2023-05-02T13:50:37.255Z,21.83
2023-05-02T13:53:04.234Z,19.70
2023-05-02T13:55:31.076Z,18.90
2023-05-02T13:57:57.932Z,19.76
2023-05-02T14:00:24.985Z,20.82
2023-05-02T14:02:52.716Z,21.28
2023-05-02T14:05:19.599Z,21.50
2023-05-02T14:07:46.809Z,21.78
2023-05-02T14:10:13.591Z,21.88
2023-05-02T14:12:40.381Z,22.20
2023-05-02T14:15:07.195Z,22.10
2023-05-02T14:17:34.072Z,22.20
2023-05-02T14:20:01.023Z,22.38
2023-05-02T14:22:28.003Z,22.35
2023-05-02T14:24:54.788Z,22.51
2023-05-02T14:27:21.588Z,22.59
2023-05-02T14:29:48.419Z,22.57
2023-05-02T14:32:15.273Z,22.71
2023-05-02T14:34:42.099Z,22.29
2023-05-02T14:37:09.296Z,19.84
2023-05-02T14:39:36.602Z,18.96
2023-05-02T14:42:04.158Z,19.70
2023-05-02T14:44:31.048Z,20.60
2023-05-02T14:46:57.950Z,21.21
2023-05-02T14:49:25.263Z,21.52
2023-05-02T14:51:52.020Z,21.77
2023-05-02T14:54:20.290Z,21.88
2023-05-02T14:56:48.154Z,22.00
2023-05-02T14:59:15.022Z,22.10
2023-05-02T15:01:41.914Z,22.25
2023-05-02T15:04:09.077Z,22.35
2023-05-02T15:06:36.738Z,22.36
2023-05-02T15:09:04.716Z,22.45
2023-05-02T15:11:31.624Z,22.51
2023-05-02T15:13:59.552Z,22.64
2023-05-02T15:16:29.742Z,22.59
2023-05-02T15:18:56.690Z,20.00
2023-05-02T15:21:23.626Z,18.79
2023-05-02T15:23:50.706Z,19.31
2023-05-02T15:26:17.710Z,20.43
2023-05-02T15:28:44.473Z,21.10
2023-05-02T15:31:11.280Z,21.39
2023-05-02T15:33:38.284Z,21.67
2023-05-02T15:36:05.149Z,21.75
2023-05-02T15:38:33.948Z,21.98
2023-05-02T15:41:00.816Z,22.10
2023-05-02T15:43:27.738Z,22.11
2023-05-02T15:45:54.589Z,22.16
2023-05-02T15:48:21.560Z,22.27
2023-05-02T15:50:48.315Z,22.31
2023-05-02T15:53:15.641Z,22.40
2023-05-02T15:55:43.000Z,22.48
2023-05-02T15:58:09.812Z,22.55
2023-05-02T16:00:36.635Z,22.55
2023-05-02T16:03:04.158Z,22.74
2023-05-02T16:05:31.189Z,21.21
2023-05-02T16:07:58.085Z,19.75
2023-05-02T16:10:24.880Z,19.52
2023-05-02T16:12:52.496Z,20.57
2023-05-02T16:15:19.266Z,21.23
2023-05-02T16:17:46.088Z,21.52
2023-05-02T16:20:13.141Z,21.76
2023-05-02T16:22:40.095Z,22.01
2023-05-02T16:25:07.004Z,22.07
2023-05-02T16:27:33.744Z,22.21
2023-05-02T16:30:00.843Z,22.20
2023-05-02T16:32:27.975Z,22.37
2023-05-02T16:34:54.756Z,22.55
2023-05-02T16:37:21.523Z,22.58
2023-05-02T16:39:48.690Z,22.65
2023-05-02T16:42:15.575Z,22.73
2023-05-02T16:44:42.383Z,22.77
2023-05-02T16:47:09.241Z,21.28
2023-05-02T16:49:36.153Z,19.64
2023-05-02T16:52:02.915Z,19.40
2023-05-02T16:54:29.671Z,20.52
2023-05-02T16:56:56.429Z,21.24
2023-05-02T16:59:23.185Z,21.56
2023-05-02T17:01:50.050Z,21.80
2023-05-02T17:04:17.471Z,21.90
2023-05-02T17:06:44.534Z,22.08
2023-05-02T17:09:11.276Z,22.14
2023-05-02T17:11:38.010Z,22.27
2023-05-02T17:14:04.824Z,22.36
2023-05-02T17:16:31.608Z,22.49
2023-05-02T17:18:58.379Z,22.58
2023-05-02T17:21:25.166Z,22.60
2023-05-02T17:23:52.187Z,22.66
2023-05-02T17:26:18.954Z,21.40
2023-05-02T17:28:46.065Z,19.52
2023-05-02T17:31:13.045Z,18.81
2023-05-02T17:33:39.909Z,19.91
2023-05-02T17:36:06.819Z,20.73
2023-05-02T17:38:33.714Z,21.25
2023-05-02T17:41:00.586Z,21.64
2023-05-02T17:43:27.349Z,21.66
2023-05-02T17:45:54.160Z,21.79
2023-05-02T17:48:21.235Z,22.01
2023-05-02T17:50:49.776Z,22.13
2023-05-02T17:53:16.636Z,22.15
2023-05-02T17:55:43.401Z,22.25
2023-05-02T17:58:10.257Z,22.29
2023-05-02T18:00:37.006Z,22.37
2023-05-02T18:03:03.955Z,22.45
2023-05-02T18:05:31.077Z,22.53
2023-05-02T18:07:58.788Z,22.61
2023-05-02T18:10:25.908Z,22.59
2023-05-02T18:12:52.757Z,22.60
2023-05-02T18:15:19.493Z,22.59
2023-05-02T18:17:46.312Z,20.27
2023-05-02T18:20:14.265Z,19.30
2023-05-02T18:22:41.265Z,19.61
2023-05-02T18:25:08.196Z,20.25
2023-05-02T18:27:34.993Z,21.10
2023-05-02T18:30:01.871Z,21.48
2023-05-02T18:32:28.742Z,21.62
2023-05-02T18:34:55.536Z,21.79
2023-05-02T18:37:29.331Z,21.87
2023-05-02T18:39:56.186Z,22.06
2023-05-02T18:42:22.945Z,22.24
2023-05-02T18:44:49.712Z,22.27
2023-05-02T18:47:17.064Z,22.24
2023-05-02T18:49:43.877Z,22.33
2023-05-02T18:52:10.624Z,22.48
2023-05-02T18:54:37.552Z,22.54
2023-05-02T18:57:04.971Z,22.63
2023-05-02T18:59:31.947Z,22.60
2023-05-02T19:01:59.587Z,22.85
2023-05-02T19:04:26.551Z,20.95
2023-05-02T19:06:53.387Z,19.24
2023-05-02T19:09:20.427Z,18.63
2023-05-02T19:11:47.168Z,19.85
2023-05-02T19:14:13.972Z,20.87
2023-05-02T19:16:41.103Z,21.24
2023-05-02T19:19:07.876Z,21.47
2023-05-02T19:21:34.638Z,21.62
2023-05-02T19:24:01.827Z,21.92
2023-05-02T19:26:28.616Z,22.03
2023-05-02T19:28:55.454Z,22.01
2023-05-02T19:31:23.465Z,22.14
2023-05-02T19:33:51.651Z,22.14
2023-05-02T19:36:18.443Z,22.26
2023-05-02T19:38:45.207Z,22.42
2023-05-02T19:41:11.970Z,22.42
2023-05-02T19:43:38.759Z,22.44
2023-05-02T19:46:05.603Z,22.55
2023-05-02T19:48:32.414Z,22.67
2023-05-02T19:50:59.172Z,22.62
2023-05-02T19:53:25.980Z,22.53
2023-05-02T19:55:53.338Z,19.79
2023-05-02T19:58:20.102Z,18.71
2023-05-02T20:00:49.174Z,19.00
2023-05-02T20:03:16.183Z,20.06
2023-05-02T20:05:43.096Z,20.83
2023-05-02T20:08:10.146Z,21.25
2023-05-02T20:10:36.880Z,21.43
2023-05-02T20:13:03.642Z,21.66
2023-05-02T20:15:30.695Z,21.74
2023-05-02T20:17:58.146Z,21.97
2023-05-02T20:20:25.065Z,22.01
2023-05-02T20:22:51.877Z,22.15
2023-05-02T20:25:18.638Z,22.11
2023-05-02T20:27:45.440Z,22.19
2023-05-02T20:30:12.299Z,22.41
2023-05-02T20:32:39.048Z,22.33
2023-05-02T20:35:05.846Z,22.49
2023-05-02T20:37:32.603Z,22.49
2023-05-02T20:39:59.358Z,22.58
2023-05-02T20:42:26.764Z,22.60
2023-05-02T20:44:54.566Z,22.63
2023-05-02T20:47:21.315Z,20.67
2023-05-02T20:49:48.069Z,19.32
2023-05-02T20:52:15.348Z,18.53
2023-05-02T20:54:42.125Z,19.68
2023-05-02T20:57:08.861Z,20.64
2023-05-02T20:59:35.790Z,21.10
2023-05-02T21:02:02.797Z,21.45
2023-05-02T21:04:29.764Z,21.64
2023-05-02T21:06:56.831Z,21.75
2023-05-02T21:09:23.691Z,21.83
2023-05-02T21:11:50.451Z,21.90
2023-05-02T21:14:17.358Z,22.12
2023-05-02T21:16:44.121Z,22.21
2023-05-02T21:19:10.993Z,22.19
2023-05-02T21:21:37.868Z,22.29
2023-05-02T21:24:04.689Z,22.37
2023-05-02T21:26:31.539Z,22.46
2023-05-02T21:28:58.372Z,22.47
2023-05-02T21:31:25.464Z,22.46
2023-05-02T21:33:52.235Z,22.70
2023-05-02T21:36:19.030Z,22.61
2023-05-02T21:38:45.857Z,22.67
2023-05-02T21:41:12.631Z,20.22
2023-05-02T21:43:39.400Z,18.64
2023-05-02T21:46:06.245Z,19.15
2023-05-02T21:48:32.995Z,20.12
2023-05-02T21:50:59.759Z,20.89
2023-05-02T21:53:27.034Z,21.31
2023-05-02T21:55:53.806Z,21.48
2023-05-02T21:58:20.581Z,21.63
2023-05-02T22:00:47.362Z,21.83
2023-05-02T22:03:14.230Z,21.96
2023-05-02T22:05:41.163Z,22.06
2023-05-02T22:08:07.932Z,22.22
2023-05-02T22:10:41.346Z,22.15
2023-05-02T22:13:12.084Z,22.27
2023-05-02T22:15:38.869Z,22.37
2023-05-02T22:18:06.509Z,22.42
2023-05-02T22:20:33.403Z,22.42
2023-05-02T22:23:00.181Z,22.47
2023-05-02T22:25:27.013Z,22.56
2023-05-02T22:27:53.852Z,22.56
2023-05-02T22:30:20.615Z,22.69
2023-05-02T22:32:47.394Z,22.70
2023-05-02T22:35:14.666Z,21.11
2023-05-02T22:37:41.425Z,19.22
2023-05-02T22:40:08.341Z,18.11
2023-05-02T22:42:35.267Z,19.61
2023-05-02T22:45:02.111Z,20.55
2023-05-02T22:47:29.008Z,21.10
2023-05-02T22:49:59.264Z,21.47
2023-05-02T22:52:27.099Z,21.60
2023-05-02T22:54:53.843Z,21.71
2023-05-02T22:57:20.997Z,21.88
2023-05-02T22:59:47.754Z,21.94
2023-05-02T23:02:14.584Z,22.03
2023-05-02T23:04:41.458Z,22.03
2023-05-02T23:07:08.205Z,22.15
2023-05-02T23:09:35.004Z,22.23
2023-05-02T23:12:03.752Z,22.25
2023-05-02T23:14:30.509Z,22.34
2023-05-02T23:16:57.301Z,22.33
2023-05-02T23:19:25.395Z,22.49
2023-05-02T23:21:52.422Z,22.58
2023-05-02T23:24:19.316Z,22.62
2023-05-02T23:26:46.085Z,22.74
2023-05-02T23:29:12.833Z,22.63
2023-05-02T23:31:39.614Z,22.76
2023-05-02T23:34:07.056Z,20.55
2023-05-02T23:36:34.267Z,18.88
2023-05-02T23:39:01.650Z,18.63
2023-05-02T23:41:28.404Z,19.95
2023-05-02T23:43:55.638Z,20.92
2023-05-02T23:46:22.425Z,21.27
2023-05-02T23:48:49.238Z,21.49
2023-05-02T23:51:15.980Z,21.66
2023-05-02T23:53:42.726Z,21.78
2023-05-02T23:56:09.815Z,21.95
2023-05-02T23:58:36.542Z,21.88
